Time;durP1;ratioP1;P1;durP2;ratioP2;P2;SDS_P1;SDS_P2;PMS_P1;PMS_P2;Temp;Humidity;BMP_temperature;BMP_pressure;BME280_temperature;BME280_humidity;BME280_pressure;Samples;Min_cycle;Max_cycle;Signal;HPM_P1;HPM_P2
2021/07/04 00:02:11;;;;;;;15.07;9.35;;;;;;;;;;4992621;28;20042;-61
2021/07/04 00:04:36;;;;;;;19.02;9.07;;;;;;;;;;4968129;28;20034;-60
2021/07/04 00:07:03;;;;;;;19.00;10.90;;;;;;;;;;4994657;28;20034;-60
2021/07/04 00:09:30;;;;;;;20.77;10.75;;;;;;;;;;4991497;28;20026;-60
2021/07/04 00:11:59;;;;;;;20.35;10.73;;;;;;;;;;4990732;28;20121;-60
2021/07/04 00:14:27;;;;;;;17.40;10.80;;;;;;;;;;4948635;28;21057;-61
2021/07/04 00:16:54;;;;;;;20.77;10.45;;;;;;;;;;4986131;28;21967;-61
2021/07/04 00:19:23;;;;;;;19.35;10.73;;;;;;;;;;4977548;28;20084;-61
2021/07/04 00:21:54;;;;;;;21.13;11.15;;;;;;;;;;4977868;28;20650;-61
2021/07/04 00:24:22;;;;;;;21.05;11.65;;;;;;;;;;4989888;28;20159;-61
2021/07/04 00:26:50;;;;;;;20.70;11.32;;;;;;;;;;4989864;28;20184;-59
2021/07/04 00:29:16;;;;;;;19.23;11.68;;;;;;;;;;4990846;28;20041;-59
2021/07/04 00:31:46;;;;;;;24.30;12.25;;;;;;;;;;4965520;28;20038;-60
2021/07/04 00:34:14;;;;;;;17.63;10.75;;;;;;;;;;4989975;28;20103;-60
2021/07/04 00:36:39;;;;;;;20.48;10.50;;;;;;;;;;4976306;28;20045;-59
2021/07/04 00:39:05;;;;;;;24.80;12.40;;;;;;;;;;4937877;28;20068;-60
2021/07/04 00:41:30;;;;;;;20.17;10.25;;;;;;;;;;4973993;28;20141;-59
2021/07/04 00:43:58;;;;;;;28.30;12.60;;;;;;;;;;4976044;28;20057;-60
2021/07/04 00:46:30;;;;;;;24.33;12.10;;;;;;;;;;4990365;28;20034;-60
2021/07/04 00:48:58;;;;;;;21.38;11.75;;;;;;;;;;4987103;28;20035;-59
2021/07/04 00:51:26;;;;;;;24.70;12.77;;;;;;;;;;4990314;28;20029;-59
2021/07/04 00:53:51;;;;;;;20.60;11.38;;;;;;;;;;4976452;28;20931;-58
2021/07/04 00:56:19;;;;;;;28.05;12.70;;;;;;;;;;4963824;28;20046;-60
2021/07/04 00:58:47;;;;;;;19.95;11.60;;;;;;;;;;4984496;28;20041;-58
2021/07/04 01:01:14;;;;;;;21.83;11.40;;;;;;;;;;4983614;28;20152;-59
2021/07/04 01:03:40;;;;;;;25.52;11.73;;;;;;;;;;4981324;28;21032;-59
2021/07/04 01:06:11;;;;;;;30.33;12.27;;;;;;;;;;4960475;28;20038;-58
2021/07/04 01:08:38;;;;;;;22.10;13.32;;;;;;;;;;4988513;28;21179;-59
2021/07/04 01:11:04;;;;;;;25.00;13.25;;;;;;;;;;4991123;28;20048;-59
2021/07/04 01:13:30;;;;;;;24.55;13.65;;;;;;;;;;4989938;28;22027;-60
2021/07/04 01:15:56;;;;;;;24.50;12.52;;;;;;;;;;4973605;28;20053;-59
2021/07/04 01:18:24;;;;;;;30.27;14.30;;;;;;;;;;4967929;28;20613;-58
2021/07/04 01:20:51;;;;;;;23.92;13.48;;;;;;;;;;4976040;28;20030;-58
2021/07/04 01:23:19;;;;;;;26.75;13.13;;;;;;;;;;4987953;28;20032;-58
2021/07/04 01:25:50;;;;;;;29.75;14.02;;;;;;;;;;4976656;28;20034;-57
2021/07/04 01:28:20;;;;;;;27.45;13.52;;;;;;;;;;4988857;28;20119;-57
2021/07/04 01:30:52;;;;;;;24.52;13.85;;;;;;;;;;4990142;28;20144;-58
2021/07/04 01:33:20;;;;;;;29.90;14.80;;;;;;;;;;4970572;28;20125;-57
2021/07/04 01:35:46;;;;;;;24.88;13.75;;;;;;;;;;4989192;28;20037;-59
2021/07/04 01:38:15;;;;;;;30.15;15.50;;;;;;;;;;4965360;28;20025;-58
2021/07/04 01:40:43;;;;;;;23.70;13.60;;;;;;;;;;4988073;28;20091;-58
2021/07/04 01:43:13;;;;;;;24.73;13.82;;;;;;;;;;4989115;28;20106;-58
2021/07/04 01:45:39;;;;;;;31.35;14.38;;;;;;;;;;4971241;28;20057;-58
2021/07/04 01:48:06;;;;;;;26.33;14.13;;;;;;;;;;4975659;28;20038;-58
2021/07/04 01:50:34;;;;;;;28.95;15.18;;;;;;;;;;4972582;28;20037;-58
2021/07/04 01:53:04;;;;;;;24.58;13.55;;;;;;;;;;4971463;28;20034;-59
2021/07/04 01:55:32;;;;;;;29.10;15.88;;;;;;;;;;4989539;28;20063;-59
2021/07/04 01:57:57;;;;;;;26.52;13.43;;;;;;;;;;4987875;28;20046;-58
2021/07/04 02:00:30;;;;;;;30.00;14.63;;;;;;;;;;4982880;28;20771;-57
2021/07/04 02:03:02;;;;;;;28.95;14.48;;;;;;;;;;4989303;28;20157;-57
2021/07/04 02:05:30;;;;;;;25.70;13.73;;;;;;;;;;4984901;28;20130;-58
2021/07/04 02:07:56;;;;;;;29.10;15.00;;;;;;;;;;4982842;28;22028;-59
2021/07/04 02:10:25;;;;;;;31.23;14.55;;;;;;;;;;4965925;28;20038;-58
2021/07/04 02:12:53;;;;;;;29.30;15.35;;;;;;;;;;4974502;28;20145;-58
2021/07/04 02:15:32;;;;;;;33.15;15.15;;;;;;;;;;4975033;28;20041;-58
2021/07/04 02:18:04;;;;;;;30.27;15.13;;;;;;;;;;4985732;28;20125;-58
2021/07/04 02:20:37;;;;;;;29.40;15.57;;;;;;;;;;4987809;28;20190;-58
2021/07/04 02:23:06;;;;;;;30.73;15.52;;;;;;;;;;4987055;28;21196;-58
2021/07/04 02:25:32;;;;;;;30.33;15.60;;;;;;;;;;4987927;28;20155;-59
2021/07/04 02:28:03;;;;;;;38.42;16.08;;;;;;;;;;4966581;28;21006;-59
2021/07/04 02:30:34;;;;;;;33.13;15.75;;;;;;;;;;4988302;28;22064;-59
2021/07/04 02:33:06;;;;;;;31.10;16.77;;;;;;;;;;4975055;28;20109;-60
2021/07/04 02:35:37;;;;;;;29.65;14.68;;;;;;;;;;4981305;28;20037;-59
2021/07/04 02:38:08;;;;;;;29.13;15.43;;;;;;;;;;4971743;28;20041;-58
2021/07/04 02:40:34;;;;;;;35.13;16.27;;;;;;;;;;4970107;28;20122;-60
2021/07/04 02:43:00;;;;;;;35.20;17.67;;;;;;;;;;4988439;28;21129;-59
2021/07/04 02:45:26;;;;;;;33.40;16.30;;;;;;;;;;4960450;28;20038;-59
2021/07/04 02:47:55;;;;;;;33.88;16.85;;;;;;;;;;4972626;28;20164;-59
2021/07/04 02:50:24;;;;;;;39.45;16.27;;;;;;;;;;4987539;28;20077;-59
2021/07/04 02:56:28;;;;;;;40.88;18.40;;;;;;;;;;4988555;28;22076;-60
2021/07/04 02:58:56;;;;;;;38.10;17.00;;;;;;;;;;4973008;28;20057;-59
2021/07/04 03:01:21;;;;;;;34.97;16.92;;;;;;;;;;4979388;28;20030;-60
2021/07/04 03:03:49;;;;;;;35.28;17.80;;;;;;;;;;4986599;28;20045;-60
2021/07/04 03:06:15;;;;;;;35.50;16.35;;;;;;;;;;4971117;28;20042;-59
2021/07/04 03:08:45;;;;;;;38.63;19.10;;;;;;;;;;4991090;28;20065;-60
2021/07/04 03:11:13;;;;;;;27.80;15.98;;;;;;;;;;4991496;28;20528;-60
2021/07/04 03:13:44;;;;;;;38.85;18.02;;;;;;;;;;4975863;28;20529;-60
2021/07/04 03:16:12;;;;;;;32.42;17.52;;;;;;;;;;4990311;28;20034;-61
2021/07/04 03:18:37;;;;;;;35.20;17.90;;;;;;;;;;4949941;28;20069;-59
2021/07/04 03:21:02;;;;;;;33.25;17.40;;;;;;;;;;4986183;28;20045;-59
2021/07/04 03:23:29;;;;;;;37.47;17.55;;;;;;;;;;4986091;28;21190;-59
2021/07/04 03:25:55;;;;;;;31.92;17.42;;;;;;;;;;4977922;28;20026;-60
2021/07/04 03:28:20;;;;;;;36.22;17.45;;;;;;;;;;4977941;28;20041;-59
2021/07/04 03:30:48;;;;;;;33.30;16.40;;;;;;;;;;4993207;28;20082;-60
2021/07/04 03:33:14;;;;;;;43.35;18.27;;;;;;;;;;4990165;28;20053;-59
2021/07/04 03:35:42;;;;;;;35.42;16.67;;;;;;;;;;4992200;28;20037;-61
2021/07/04 03:38:08;;;;;;;46.35;18.58;;;;;;;;;;4989182;28;20048;-59
2021/07/04 03:40:36;;;;;;;35.60;16.45;;;;;;;;;;4976365;28;20531;-60
2021/07/04 03:43:05;;;;;;;37.92;16.48;;;;;;;;;;4989968;28;20042;-60
2021/07/04 03:45:33;;;;;;;29.23;16.17;;;;;;;;;;4989841;28;20599;-59
2021/07/04 03:48:01;;;;;;;32.40;17.38;;;;;;;;;;4991228;28;20038;-60
2021/07/04 03:50:34;;;;;;;28.05;15.43;;;;;;;;;;4992161;28;20026;-60
2021/07/04 03:53:01;;;;;;;35.45;15.75;;;;;;;;;;4972890;28;20046;-60
2021/07/04 03:55:26;;;;;;;31.58;16.88;;;;;;;;;;4990336;28;20107;-59
2021/07/04 03:57:52;;;;;;;30.17;16.73;;;;;;;;;;4994024;28;20033;-59
2021/07/04 04:00:22;;;;;;;31.10;17.25;;;;;;;;;;4977189;28;20037;-60
2021/07/04 04:02:50;;;;;;;29.33;15.93;;;;;;;;;;4969865;28;20033;-60
2021/07/04 04:05:15;;;;;;;28.92;15.52;;;;;;;;;;4967989;28;20046;-60
2021/07/04 04:07:41;;;;;;;30.20;14.68;;;;;;;;;;4991661;28;20077;-61
2021/07/04 04:10:09;;;;;;;26.30;15.90;;;;;;;;;;4990896;28;20124;-60
2021/07/04 04:12:34;;;;;;;27.05;14.95;;;;;;;;;;4974547;28;20920;-60
2021/07/04 04:15:00;;;;;;;29.10;15.05;;;;;;;;;;4985912;28;20044;-60
2021/07/04 04:17:27;;;;;;;28.23;15.85;;;;;;;;;;4989201;28;20569;-60
2021/07/04 04:19:55;;;;;;;27.27;13.55;;;;;;;;;;4969473;28;20681;-60
2021/07/04 04:22:23;;;;;;;26.98;15.23;;;;;;;;;;4990649;28;20042;-61
2021/07/04 04:24:49;;;;;;;31.98;15.50;;;;;;;;;;4975905;28;20149;-60
2021/07/04 04:27:18;;;;;;;30.30;15.68;;;;;;;;;;4990893;28;20092;-61
2021/07/04 04:29:44;;;;;;;27.15;14.20;;;;;;;;;;4992457;28;20037;-60
2021/07/04 04:32:10;;;;;;;31.73;15.35;;;;;;;;;;4977236;28;20043;-61
2021/07/04 04:34:37;;;;;;;31.42;15.45;;;;;;;;;;4990884;28;20034;-60
2021/07/04 04:37:03;;;;;;;26.55;14.60;;;;;;;;;;4989986;28;20696;-61
2021/07/04 04:39:29;;;;;;;23.80;14.23;;;;;;;;;;4989325;28;20049;-61
2021/07/04 04:41:57;;;;;;;23.67;14.20;;;;;;;;;;4989182;28;20070;-59
2021/07/04 04:44:22;;;;;;;27.85;14.98;;;;;;;;;;4990657;28;20034;-60
2021/07/04 04:46:50;;;;;;;29.30;14.18;;;;;;;;;;4990838;28;20084;-60
2021/07/04 04:49:17;;;;;;;28.13;14.60;;;;;;;;;;4988743;28;20430;-60
2021/07/04 04:51:43;;;;;;;25.92;15.27;;;;;;;;;;4975758;28;20920;-60
2021/07/04 04:54:09;;;;;;;24.77;13.95;;;;;;;;;;4988971;28;20018;-61
2021/07/04 04:56:37;;;;;;;25.30;14.48;;;;;;;;;;4975929;28;20699;-59
2021/07/04 04:59:06;;;;;;;26.15;13.93;;;;;;;;;;4977852;28;20038;-59
2021/07/04 05:01:31;;;;;;;29.05;15.88;;;;;;;;;;4988092;28;20582;-59
2021/07/04 05:04:00;;;;;;;28.08;16.27;;;;;;;;;;4990785;28;20674;-59
2021/07/04 05:06:27;;;;;;;28.02;14.85;;;;;;;;;;4968023;28;20038;-60
2021/07/04 05:08:58;;;;;;;30.08;15.38;;;;;;;;;;4967627;28;20026;-60
2021/07/04 05:11:24;;;;;;;29.08;15.35;;;;;;;;;;4983350;28;20582;-60
2021/07/04 05:13:51;;;;;;;30.25;16.33;;;;;;;;;;4983673;28;20230;-62
2021/07/04 05:16:17;;;;;;;32.65;16.50;;;;;;;;;;4973451;28;20100;-60
2021/07/04 05:18:45;;;;;;;27.98;15.50;;;;;;;;;;4974734;28;20199;-60
2021/07/04 05:21:13;;;;;;;23.27;14.07;;;;;;;;;;4967194;28;20033;-60
2021/07/04 05:23:42;;;;;;;25.27;13.80;;;;;;;;;;4992064;28;20038;-62
2021/07/04 05:26:10;;;;;;;24.55;13.93;;;;;;;;;;4952349;28;20053;-60
2021/07/04 05:28:40;;;;;;;26.80;13.73;;;;;;;;;;4990940;28;20038;-59
2021/07/04 05:31:08;;;;;;;23.17;13.88;;;;;;;;;;4991133;28;20029;-60
2021/07/04 05:33:36;;;;;;;25.88;13.98;;;;;;;;;;4975523;28;20037;-60
2021/07/04 05:36:02;;;;;;;22.60;14.13;;;;;;;;;;4977453;28;20041;-60
2021/07/04 05:38:32;;;;;;;25.02;13.57;;;;;;;;;;4963876;28;20701;-60
2021/07/04 05:41:00;;;;;;;22.85;13.30;;;;;;;;;;4986620;28;20606;-60
2021/07/04 05:43:28;;;;;;;21.15;12.40;;;;;;;;;;4960841;28;20042;-60
2021/07/04 05:45:55;;;;;;;26.27;13.80;;;;;;;;;;4976614;28;20038;-61
2021/07/04 05:48:23;;;;;;;21.13;13.20;;;;;;;;;;4992536;28;20038;-60
2021/07/04 05:50:54;;;;;;;24.48;13.50;;;;;;;;;;4988379;28;20037;-60
2021/07/04 05:53:19;;;;;;;23.77;12.82;;;;;;;;;;4987195;28;20049;-60
2021/07/04 05:55:45;;;;;;;22.45;13.07;;;;;;;;;;4975020;28;20072;-59
2021/07/04 05:58:11;;;;;;;21.98;13.13;;;;;;;;;;4989498;28;20081;-60
2021/07/04 06:00:40;;;;;;;21.40;13.43;;;;;;;;;;4989101;28;20042;-60
2021/07/04 06:03:05;;;;;;;22.85;12.40;;;;;;;;;;4975200;28;20033;-59
2021/07/04 06:05:36;;;;;;;18.20;12.25;;;;;;;;;;4990480;28;20493;-60
2021/07/04 06:08:07;;;;;;;19.77;12.68;;;;;;;;;;4989553;28;20041;-60
2021/07/04 06:10:37;;;;;;;17.42;11.77;;;;;;;;;;4987051;28;20117;-59
2021/07/04 06:13:03;;;;;;;17.48;11.02;;;;;;;;;;4988239;28;21979;-60
2021/07/04 06:15:31;;;;;;;18.08;12.15;;;;;;;;;;4982864;28;20104;-60
2021/07/04 06:17:59;;;;;;;18.35;12.07;;;;;;;;;;4990446;28;20470;-59
2021/07/04 06:20:25;;;;;;;18.00;11.48;;;;;;;;;;4989420;28;20044;-59
2021/07/04 06:22:53;;;;;;;17.20;11.32;;;;;;;;;;4966254;28;20041;-60
2021/07/04 06:25:22;;;;;;;16.20;12.18;;;;;;;;;;4975192;28;20075;-60
2021/07/04 06:27:48;;;;;;;17.38;10.73;;;;;;;;;;4989291;28;20057;-61
2021/07/04 06:30:16;;;;;;;19.27;11.57;;;;;;;;;;4989892;28;20649;-60
2021/07/04 06:32:44;;;;;;;17.25;11.23;;;;;;;;;;4963571;28;20082;-60
2021/07/04 06:35:13;;;;;;;15.15;10.13;;;;;;;;;;4987230;28;20034;-60
2021/07/04 06:37:39;;;;;;;14.05;10.15;;;;;;;;;;4971167;28;20052;-58
2021/07/04 06:40:05;;;;;;;15.38;9.43;;;;;;;;;;4948303;28;20030;-59
2021/07/04 06:42:33;;;;;;;16.75;9.98;;;;;;;;;;4988390;28;20041;-60
2021/07/04 06:45:01;;;;;;;16.77;9.88;;;;;;;;;;4971457;28;20041;-61
2021/07/04 06:47:29;;;;;;;15.55;9.02;;;;;;;;;;4975299;28;21068;-61
2021/07/04 06:49:54;;;;;;;13.45;8.80;;;;;;;;;;4973539;28;20497;-61
2021/07/04 06:52:23;;;;;;;13.73;9.30;;;;;;;;;;4987299;28;20052;-60
2021/07/04 06:54:48;;;;;;;12.60;9.40;;;;;;;;;;4985439;28;20635;-60
2021/07/04 06:57:29;;;;;;;18.25;9.95;;;;;;;;;;4974251;28;20119;-60
2021/07/04 07:00:01;;;;;;;14.15;9.18;;;;;;;;;;4975228;28;20076;-61
2021/07/04 07:02:32;;;;;;;15.73;10.45;;;;;;;;;;4974676;28;20489;-60
2021/07/04 07:04:57;;;;;;;15.43;9.57;;;;;;;;;;4982475;28;20044;-60
2021/07/04 07:07:23;;;;;;;25.00;9.90;;;;;;;;;;4987544;28;20041;-60
2021/07/04 07:09:49;;;;;;;15.52;10.32;;;;;;;;;;4975262;28;20066;-60
2021/07/04 07:12:15;;;;;;;15.70;9.80;;;;;;;;;;4975434;28;20084;-60
2021/07/04 07:14:46;;;;;;;16.98;10.05;;;;;;;;;;4958797;28;20048;-60
2021/07/04 07:17:14;;;;;;;13.02;9.02;;;;;;;;;;4970775;28;20034;-61
2021/07/04 07:19:42;;;;;;;12.30;9.25;;;;;;;;;;4969840;28;20033;-61
2021/07/04 07:22:13;;;;;;;14.98;8.82;;;;;;;;;;4961635;28;20034;-62
2021/07/04 07:24:38;;;;;;;15.15;9.10;;;;;;;;;;4986898;28;20037;-61
2021/07/04 07:27:07;;;;;;;15.38;9.30;;;;;;;;;;4973166;28;20046;-63
2021/07/04 07:29:37;;;;;;;13.38;8.68;;;;;;;;;;4987310;28;20045;-60
2021/07/04 07:32:05;;;;;;;12.40;8.15;;;;;;;;;;4986933;28;20161;-61
2021/07/04 07:34:33;;;;;;;12.10;8.50;;;;;;;;;;4981849;28;20033;-61
2021/07/04 07:36:59;;;;;;;11.98;8.38;;;;;;;;;;4986250;28;20741;-61
2021/07/04 07:39:25;;;;;;;9.95;7.28;;;;;;;;;;4986760;28;20068;-61
2021/07/04 07:41:51;;;;;;;11.88;7.28;;;;;;;;;;4987537;28;20045;-61
2021/07/04 07:44:16;;;;;;;9.95;7.13;;;;;;;;;;4969429;28;20083;-60
2021/07/04 07:46:42;;;;;;;13.25;7.65;;;;;;;;;;4970076;28;20529;-60
2021/07/04 07:49:13;;;;;;;11.07;7.55;;;;;;;;;;4990577;28;20029;-62
2021/07/04 07:51:38;;;;;;;8.73;6.03;;;;;;;;;;4975065;28;20060;-60
2021/07/04 07:54:06;;;;;;;6.03;4.88;;;;;;;;;;4988539;28;20865;-61
2021/07/04 07:56:32;;;;;;;11.95;7.90;;;;;;;;;;4992139;28;20648;-60
2021/07/04 07:59:01;;;;;;;7.05;4.63;;;;;;;;;;4975628;28;20033;-61
2021/07/04 08:01:28;;;;;;;8.52;4.38;;;;;;;;;;4989723;28;20038;-62
2021/07/04 08:03:54;;;;;;;5.50;4.88;;;;;;;;;;4993596;28;20531;-61
2021/07/04 08:06:20;;;;;;;5.30;4.63;;;;;;;;;;4991893;28;20034;-62
2021/07/04 08:08:50;;;;;;;5.40;3.95;;;;;;;;;;4972128;28;20037;-61
2021/07/04 08:11:16;;;;;;;6.25;4.03;;;;;;;;;;4992557;28;20474;-62
2021/07/04 08:13:44;;;;;;;4.75;4.25;;;;;;;;;;4990084;28;20037;-62
2021/07/04 08:16:14;;;;;;;4.47;3.83;;;;;;;;;;4984612;28;20932;-61
2021/07/04 08:18:40;;;;;;;5.47;3.30;;;;;;;;;;4955785;28;20048;-62
2021/07/04 08:21:07;;;;;;;4.25;3.22;;;;;;;;;;4984341;28;20045;-62
2021/07/04 08:23:35;;;;;;;6.60;4.38;;;;;;;;;;4990370;28;20042;-61
2021/07/04 08:26:00;;;;;;;4.50;3.20;;;;;;;;;;4989383;28;20044;-61
2021/07/04 08:28:31;;;;;;;5.00;3.95;;;;;;;;;;4967493;28;20057;-63
2021/07/04 08:31:00;;;;;;;6.10;4.35;;;;;;;;;;4990089;28;20045;-62
2021/07/04 08:33:25;;;;;;;4.55;3.55;;;;;;;;;;4989744;28;20460;-61
2021/07/04 08:35:53;;;;;;;5.20;4.07;;;;;;;;;;4991437;28;20038;-60
2021/07/04 08:38:21;;;;;;;4.63;3.88;;;;;;;;;;4987250;28;20205;-61
2021/07/04 08:40:48;;;;;;;4.75;3.95;;;;;;;;;;4989505;28;20172;-61
2021/07/04 08:43:30;;;;;;;6.28;4.55;;;;;;;;;;4971879;28;20103;-61
2021/07/04 08:45:58;;;;;;;5.60;3.83;;;;;;;;;;4991700;28;20160;-61
2021/07/04 08:48:24;;;;;;;4.60;4.07;;;;;;;;;;4975736;28;20072;-61
2021/07/04 08:50:53;;;;;;;5.63;4.28;;;;;;;;;;4965891;28;20034;-62
2021/07/04 08:53:19;;;;;;;5.97;4.15;;;;;;;;;;4987826;28;20026;-62
2021/07/04 08:55:48;;;;;;;5.65;4.13;;;;;;;;;;4976173;28;20049;-62
2021/07/04 08:58:18;;;;;;;6.65;4.53;;;;;;;;;;4990049;28;20041;-61
2021/07/04 09:00:43;;;;;;;6.25;4.43;;;;;;;;;;4988064;28;20030;-62
2021/07/04 09:03:24;;;;;;;6.95;4.63;;;;;;;;;;4965490;28;20041;-62
2021/07/04 09:05:53;;;;;;;6.28;4.80;;;;;;;;;;4977075;28;20120;-62
2021/07/04 09:08:18;;;;;;;7.90;4.90;;;;;;;;;;4988189;28;20119;-63
2021/07/04 09:10:44;;;;;;;6.03;4.82;;;;;;;;;;4976474;28;20033;-62
2021/07/04 09:13:23;;;;;;;5.90;5.30;;;;;;;;;;4973473;28;20044;-62
2021/07/04 09:16:09;;;;;;;5.68;5.07;;;;;;;;;;4991783;28;20029;-63
2021/07/04 09:18:40;;;;;;;6.43;5.70;;;;;;;;;;4989315;28;20109;-62
2021/07/04 09:21:19;;;;;;;9.25;6.35;;;;;;;;;;4986703;28;20074;-60
2021/07/04 09:23:45;;;;;;;8.25;6.78;;;;;;;;;;4988699;28;20111;-62
2021/07/04 09:26:30;;;;;;;10.23;7.00;;;;;;;;;;4988327;28;20023;-62
2021/07/04 09:28:55;;;;;;;;;;;;;;;;;;4976675;28;20042;-64
2021/07/04 09:31:21;;;;;;;7.05;5.95;;;;;;;;;;4976217;28;19948;-61
2021/07/04 09:33:47;;;;;;;8.82;6.72;;;;;;;;;;4983327;28;20095;-62
2021/07/04 09:36:14;;;;;;;7.30;6.28;;;;;;;;;;4972455;28;20037;-61
2021/07/04 09:38:43;;;;;;;7.88;5.75;;;;;;;;;;4988784;28;21389;-62
2021/07/04 09:41:11;;;;;;;5.20;4.55;;;;;;;;;;4974515;28;20037;-63
2021/07/04 09:43:43;;;;;;;5.93;4.43;;;;;;;;;;4975444;28;20145;-64
2021/07/04 09:46:10;;;;;;;6.80;4.82;;;;;;;;;;4989253;28;20046;-65
2021/07/04 09:48:46;;;;;;;5.57;5.00;;;;;;;;;;4966480;28;20106;-63
2021/07/04 09:51:21;;;;;;;6.28;5.57;;;;;;;;;;4989992;28;20033;-64
2021/07/04 09:53:54;;;;;;;7.10;5.90;;;;;;;;;;4987941;28;20030;-65
2021/07/04 09:56:23;;;;;;;5.55;5.05;;;;;;;;;;4990113;28;20044;-66
2021/07/04 09:58:55;;;;;;;7.05;5.93;;;;;;;;;;4982441;28;20369;-64
2021/07/04 10:01:45;;;;;;;7.07;5.22;;;;;;;;;;4990207;28;20140;-64
2021/07/04 10:04:31;;;;;;;6.57;5.32;;;;;;;;;;4946135;28;20045;-64
2021/07/04 10:06:59;;;;;;;5.90;5.30;;;;;;;;;;4991529;28;20191;-64
2021/07/04 10:09:29;;;;;;;8.02;5.82;;;;;;;;;;4988229;28;20033;-64
2021/07/04 10:11:59;;;;;;;6.33;5.33;;;;;;;;;;4988969;28;20037;-63
2021/07/04 10:14:28;;;;;;;5.68;4.70;;;;;;;;;;4967425;28;20030;-63
2021/07/04 10:16:59;;;;;;;5.20;4.70;;;;;;;;;;4966332;28;20793;-64
2021/07/04 10:19:29;;;;;;;6.00;4.47;;;;;;;;;;4976431;28;20073;-63
2021/07/04 10:21:59;;;;;;;4.18;3.63;;;;;;;;;;4988767;28;20060;-61
2021/07/04 10:24:30;;;;;;;4.10;3.70;;;;;;;;;;4974227;28;20125;-62
2021/07/04 10:26:58;;;;;;;6.57;4.22;;;;;;;;;;4989522;28;20041;-63
2021/07/04 10:29:26;;;;;;;4.50;3.88;;;;;;;;;;4965768;28;20418;-64
2021/07/04 10:31:52;;;;;;;4.55;4.05;;;;;;;;;;4972836;28;20404;-63
2021/07/04 10:34:27;;;;;;;6.97;4.35;;;;;;;;;;4988698;28;20035;-62
2021/07/04 10:37:00;;;;;;;7.00;5.07;;;;;;;;;;4959472;28;20401;-63
2021/07/04 10:39:34;;;;;;;8.83;7.20;;;;;;;;;;4980594;28;20050;-63
2021/07/04 10:42:05;;;;;;;6.47;5.32;;;;;;;;;;4967584;28;20285;-62
2021/07/04 10:44:41;;;;;;;7.95;6.40;;;;;;;;;;4986082;28;20030;-63
2021/07/04 10:47:12;;;;;;;9.35;5.65;;;;;;;;;;4989470;28;20046;-62
2021/07/04 10:49:46;;;;;;;7.88;5.60;;;;;;;;;;4988365;28;20041;-63
2021/07/04 10:52:21;;;;;;;8.38;6.22;;;;;;;;;;4965830;28;20034;-63
2021/07/04 10:54:48;;;;;;;10.32;6.25;;;;;;;;;;4982308;28;20030;-63
2021/07/04 10:57:14;;;;;;;7.18;5.65;;;;;;;;;;4969816;28;20553;-64
2021/07/04 10:59:51;;;;;;;7.68;6.10;;;;;;;;;;4971547;28;20034;-62
2021/07/04 11:02:35;;;;;;;6.90;5.15;;;;;;;;;;4988621;28;20097;-64
2021/07/04 11:05:03;;;;;;;7.78;5.60;;;;;;;;;;4982305;28;20034;-62
2021/07/04 11:07:50;;;;;;;8.18;5.57;;;;;;;;;;4973815;28;20033;-63
2021/07/04 11:10:21;;;;;;;10.65;5.60;;;;;;;;;;4973781;28;20104;-62
2021/07/04 11:12:50;;;;;;;8.60;6.75;;;;;;;;;;4987041;28;20057;-63
2021/07/04 11:15:21;;;;;;;9.50;6.60;;;;;;;;;;4975479;28;21993;-63
2021/07/04 11:18:00;;;;;;;7.25;6.00;;;;;;;;;;4975625;28;20026;-64
2021/07/04 11:20:49;;;;;;;8.07;6.57;;;;;;;;;;4988221;28;20050;-63
2021/07/04 11:23:27;;;;;;;7.22;6.05;;;;;;;;;;4966288;28;20579;-62
2021/07/04 11:25:53;;;;;;;6.85;5.82;;;;;;;;;;4991969;28;20125;-63
2021/07/04 11:28:19;;;;;;;7.05;6.10;;;;;;;;;;4978305;28;20089;-63
2021/07/04 11:30:44;;;;;;;9.05;5.57;;;;;;;;;;4976395;28;20116;-62
2021/07/04 11:33:24;;;;;;;8.55;6.47;;;;;;;;;;4991113;28;20033;-65
2021/07/04 11:35:53;;;;;;;8.32;6.90;;;;;;;;;;4970752;28;20366;-63
2021/07/04 11:38:20;;;;;;;9.95;7.20;;;;;;;;;;4965991;28;20135;-63
2021/07/04 11:40:46;;;;;;;9.40;7.15;;;;;;;;;;4966289;28;20036;-62
2021/07/04 11:43:17;;;;;;;13.90;7.53;;;;;;;;;;4975753;28;20425;-64
2021/07/04 11:45:48;;;;;;;12.07;8.23;;;;;;;;;;4991972;28;20025;-63
2021/07/04 11:48:17;;;;;;;10.85;7.03;;;;;;;;;;4991259;28;20133;-63
2021/07/04 11:50:53;;;;;;;9.75;7.47;;;;;;;;;;4985854;28;20515;-63
2021/07/04 11:53:22;;;;;;;9.57;7.40;;;;;;;;;;4990824;28;20092;-63
2021/07/04 11:55:58;;;;;;;11.63;7.13;;;;;;;;;;4975944;28;20030;-63
2021/07/04 11:58:25;;;;;;;9.60;7.05;;;;;;;;;;4988837;28;20066;-62
2021/07/04 12:00:51;;;;;;;8.50;6.97;;;;;;;;;;4969086;28;21999;-63
2021/07/04 12:03:21;;;;;;;9.98;6.28;;;;;;;;;;4991507;28;20120;-64
2021/07/04 12:05:49;;;;;;;9.25;6.80;;;;;;;;;;4976567;28;20100;-62
2021/07/04 12:08:14;;;;;;;7.13;6.10;;;;;;;;;;4968890;28;20025;-62
2021/07/04 12:11:06;;;;;;;7.00;6.03;;;;;;;;;;4965301;28;20064;-64
2021/07/04 12:13:37;;;;;;;7.35;6.10;;;;;;;;;;4982567;28;20633;-63
2021/07/04 12:16:03;;;;;;;8.52;6.38;;;;;;;;;;4960433;28;20552;-62
2021/07/04 12:18:28;;;;;;;9.15;7.00;;;;;;;;;;4990324;28;20033;-62
2021/07/04 12:20:54;;;;;;;7.30;5.50;;;;;;;;;;4993450;28;20041;-62
2021/07/04 12:23:20;;;;;;;7.93;4.93;;;;;;;;;;4990664;28;20069;-62
2021/07/04 12:25:46;;;;;;;6.25;5.22;;;;;;;;;;4990698;28;20825;-63
2021/07/04 12:28:18;;;;;;;7.93;4.93;;;;;;;;;;4970698;28;20045;-63
2021/07/04 12:30:44;;;;;;;9.30;5.70;;;;;;;;;;4974455;28;20182;-62
2021/07/04 12:33:15;;;;;;;6.38;5.60;;;;;;;;;;4990840;28;20034;-62
2021/07/04 12:35:47;;;;;;;7.88;5.60;;;;;;;;;;4968448;28;20034;-62
2021/07/04 12:38:15;;;;;;;6.88;5.30;;;;;;;;;;4975423;28;20990;-63
2021/07/04 12:40:51;;;;;;;6.55;5.10;;;;;;;;;;4989594;28;20026;-62
2021/07/04 12:43:18;;;;;;;5.03;3.92;;;;;;;;;;4981855;28;20777;-62
2021/07/04 12:45:47;;;;;;;4.50;4.10;;;;;;;;;;4991034;28;20037;-64
2021/07/04 12:48:15;;;;;;;5.05;3.80;;;;;;;;;;4987755;28;20034;-61
2021/07/04 12:50:49;;;;;;;3.83;3.38;;;;;;;;;;4973452;28;20761;-62
2021/07/04 12:53:17;;;;;;;6.80;4.25;;;;;;;;;;4959444;28;20042;-64
2021/07/04 12:55:52;;;;;;;7.82;4.47;;;;;;;;;;4990649;28;20030;-63
2021/07/04 12:58:20;;;;;;;4.68;4.18;;;;;;;;;;4991808;28;20061;-64
2021/07/04 13:00:46;;;;;;;5.70;4.63;;;;;;;;;;4991926;28;20038;-66
2021/07/04 13:03:12;;;;;;;6.50;4.40;;;;;;;;;;4988038;28;20045;-63
2021/07/04 13:05:40;;;;;;;6.00;4.88;;;;;;;;;;4992326;28;20040;-62
2021/07/04 13:08:12;;;;;;;7.47;5.47;;;;;;;;;;4976001;28;20033;-63
2021/07/04 13:10:37;;;;;;;9.80;5.95;;;;;;;;;;4980419;28;20393;-63
2021/07/04 13:13:09;;;;;;;8.75;5.57;;;;;;;;;;4990675;28;20030;-62
2021/07/04 13:15:35;;;;;;;10.80;6.07;;;;;;;;;;4982598;28;20126;-64
2021/07/04 13:18:04;;;;;;;9.85;6.60;;;;;;;;;;4989628;28;20066;-65
2021/07/04 13:20:31;;;;;;;9.77;6.80;;;;;;;;;;4989414;28;20149;-64
2021/07/04 13:22:58;;;;;;;9.90;6.43;;;;;;;;;;4990118;28;20050;-65
2021/07/04 13:25:24;;;;;;;9.63;6.72;;;;;;;;;;4973225;28;20617;-63
2021/07/04 13:28:19;;;;;;;9.90;6.78;;;;;;;;;;4959644;28;20062;-64
2021/07/04 13:30:52;;;;;;;10.35;7.20;;;;;;;;;;4957673;28;20097;-63
2021/07/04 13:33:28;;;;;;;12.40;7.53;;;;;;;;;;4956097;28;20042;-64
2021/07/04 13:35:53;;;;;;;9.65;6.78;;;;;;;;;;4944931;28;20175;-63
2021/07/04 13:38:21;;;;;;;8.63;6.47;;;;;;;;;;4931288;28;20779;-63
2021/07/04 13:40:50;;;;;;;11.20;6.53;;;;;;;;;;4944429;28;20027;-62
2021/07/04 13:43:16;;;;;;;10.48;6.28;;;;;;;;;;4957085;28;20035;-62
2021/07/04 13:45:50;;;;;;;9.85;5.88;;;;;;;;;;4944490;28;20609;-64
2021/07/04 13:48:18;;;;;;;;;;;;;;;;;;4943360;28;20023;-62
2021/07/04 13:50:50;;;;;;;8.20;5.65;;;;;;;;;;4948349;28;21188;-63
2021/07/04 13:53:18;;;;;;;13.55;7.68;;;;;;;;;;4942352;28;20049;-61
2021/07/04 13:55:47;;;;;;;12.10;7.60;;;;;;;;;;4943374;28;22087;-60
2021/07/04 13:58:13;;;;;;;11.68;7.18;;;;;;;;;;4942891;28;20034;-60
2021/07/04 14:00:39;;;;;;;14.38;8.20;;;;;;;;;;4942786;28;20035;-59
2021/07/04 14:03:07;;;;;;;12.52;8.20;;;;;;;;;;4942185;28;20634;-59
2021/07/04 14:05:33;;;;;;;11.52;7.63;;;;;;;;;;4946661;28;20047;-59
2021/07/04 14:07:59;;;;;;;12.15;8.48;;;;;;;;;;4947093;28;20851;-59
2021/07/04 14:10:24;;;;;;;14.77;7.65;;;;;;;;;;4944033;28;20049;-60
2021/07/04 14:12:53;;;;;;;8.95;6.20;;;;;;;;;;4931468;28;20039;-61
2021/07/04 14:15:18;;;;;;;8.45;6.10;;;;;;;;;;4941039;28;20035;-60
2021/07/04 14:17:43;;;;;;;9.85;6.80;;;;;;;;;;4941759;28;20042;-61
2021/07/04 14:20:11;;;;;;;9.60;6.10;;;;;;;;;;4944095;28;20074;-60
2021/07/04 14:22:39;;;;;;;8.40;6.05;;;;;;;;;;4956907;28;20035;-61
2021/07/04 14:25:08;;;;;;;10.32;6.28;;;;;;;;;;4957647;28;20110;-60
2021/07/04 14:27:37;;;;;;;8.02;6.45;;;;;;;;;;4953150;28;20042;-60
2021/07/04 14:30:04;;;;;;;48.42;10.88;;;;;;;;;;4984281;28;20709;-60
2021/07/04 14:32:33;;;;;;;13.90;8.30;;;;;;;;;;4970060;28;20631;-58
2021/07/04 14:35:01;;;;;;;25.70;9.40;;;;;;;;;;4967621;28;20259;-58
2021/07/04 14:37:26;;;;;;;17.83;9.10;;;;;;;;;;4970591;28;20152;-58
2021/07/04 14:39:55;;;;;;;30.92;10.55;;;;;;;;;;4977052;28;20652;-58
2021/07/04 14:42:24;;;;;;;17.67;10.05;;;;;;;;;;4971111;28;20052;-58